createdAt,value
2024-03-20T00:04:13.748Z,2.27
2024-03-20T00:12:07.777Z,2.34
2024-03-20T00:15:58.590Z,2.30
2024-03-20T00:19:49.796Z,2.32
2024-03-20T00:23:51.526Z,2.33
2024-03-20T00:31:32.717Z,2.38
2024-03-20T00:35:21.137Z,2.40
2024-03-20T00:39:02.520Z,2.41
2024-03-20T00:42:46.164Z,2.42
2024-03-20T00:46:35.223Z,2.40
2024-03-20T00:50:23.529Z,2.42
2024-03-20T00:54:24.626Z,2.41
2024-03-20T00:58:24.286Z,2.43
2024-03-20T01:14:02.183Z,2.48
2024-03-20T01:17:45.765Z,2.51
2024-03-20T01:21:28.481Z,2.54
2024-03-20T01:25:30.778Z,2.57
2024-03-20T01:29:12.547Z,2.60
2024-03-20T01:33:03.802Z,2.62
2024-03-20T01:36:59.125Z,2.60
2024-03-20T01:40:53.284Z,2.58
2024-03-20T01:48:44.746Z,2.62
2024-03-20T01:52:51.777Z,2.58
2024-03-20T02:00:44.890Z,2.53
2024-03-20T02:04:32.643Z,2.53
2024-03-20T02:08:17.702Z,2.50
2024-03-20T02:16:10.466Z,2.46
2024-03-20T02:19:51.673Z,2.45
2024-03-20T02:23:56.913Z,2.44
2024-03-20T02:27:52.852Z,2.40
2024-03-20T02:31:39.658Z,2.37
2024-03-20T02:35:29.690Z,2.32
2024-03-20T02:39:17.488Z,2.29
2024-03-20T02:43:06.796Z,2.27
2024-03-20T02:47:12.886Z,2.23
2024-03-20T02:51:03.699Z,2.17
2024-03-20T02:54:48.190Z,2.12
2024-03-20T02:58:39.109Z,2.09
2024-03-20T03:06:14.622Z,1.98
2024-03-20T03:10:02.773Z,1.93
2024-03-20T03:13:43.194Z,1.89
2024-03-20T03:17:28.772Z,1.86
2024-03-20T03:21:18.133Z,1.85
2024-03-20T03:25:04.658Z,1.83
2024-03-20T03:28:54.046Z,1.80
2024-03-20T03:32:48.490Z,1.80
2024-03-20T03:36:37.764Z,1.79
2024-03-20T03:40:31.206Z,1.79
2024-03-20T03:44:18.642Z,1.79
2024-03-20T03:48:11.639Z,1.80
2024-03-20T03:51:58.911Z,1.79
2024-03-20T03:55:53.846Z,1.78
2024-03-20T03:59:41.652Z,1.79
2024-03-20T04:03:38.168Z,1.78
2024-03-20T04:07:26.362Z,1.78
2024-03-20T04:15:29.270Z,1.79
2024-03-20T04:19:26.162Z,1.80
2024-03-20T04:23:16.180Z,1.82
2024-03-20T04:27:05.427Z,1.83
2024-03-20T04:35:10.228Z,1.84
2024-03-20T04:38:55.831Z,1.84
2024-03-20T04:42:58.493Z,1.82
2024-03-20T04:51:06.192Z,1.83
2024-03-20T04:54:52.647Z,1.85
2024-03-20T04:58:58.669Z,1.86
2024-03-20T05:02:46.472Z,1.90
2024-03-20T05:06:34.435Z,1.90
2024-03-20T05:10:23.056Z,1.94
2024-03-20T05:14:12.010Z,2.00
2024-03-20T05:17:53.702Z,2.06
2024-03-20T05:25:45.196Z,2.23
2024-03-20T05:29:27.206Z,2.30
2024-03-20T05:33:15.102Z,2.33
2024-03-20T05:37:02.805Z,2.42
2024-03-20T05:40:36.384Z,2.50
2024-03-20T05:44:06.553Z,2.62
2024-03-20T05:47:47.226Z,2.70
2024-03-20T05:51:32.909Z,2.78
2024-03-20T05:55:28.678Z,2.87
2024-03-20T05:59:07.137Z,3.00
2024-03-20T06:02:46.195Z,3.07
2024-03-20T06:10:30.035Z,3.28
2024-03-20T06:14:10.699Z,3.42
2024-03-20T06:17:48.155Z,3.53
2024-03-20T06:21:22.567Z,3.68
2024-03-20T06:25:09.458Z,3.74
2024-03-20T06:29:06.136Z,3.85
2024-03-20T06:32:57.036Z,4.00
2024-03-20T06:40:26.140Z,4.30
2024-03-20T06:44:06.573Z,4.38
2024-03-20T06:47:41.598Z,4.44
2024-03-20T06:51:32.191Z,4.51
2024-03-20T06:54:49.052Z,4.56
2024-03-20T06:58:37.183Z,4.59
2024-03-20T07:02:17.886Z,4.69
2024-03-20T07:06:09.117Z,4.75
2024-03-20T07:09:40.334Z,4.84
2024-03-20T07:13:28.073Z,4.91
2024-03-20T07:17:14.459Z,5.05
2024-03-20T07:21:00.876Z,5.15
2024-03-20T07:24:52.118Z,5.26
2024-03-20T07:28:32.483Z,5.36
2024-03-20T07:32:21.417Z,5.47
2024-03-20T07:36:09.898Z,5.59
2024-03-20T07:40:09.638Z,5.70
2024-03-20T07:43:57.582Z,5.82
2024-03-20T07:47:45.490Z,6.00
2024-03-20T07:51:33.310Z,6.19
2024-03-20T07:55:20.980Z,6.36
2024-03-20T07:59:07.363Z,6.52
2024-03-20T08:02:56.138Z,6.67
2024-03-20T08:06:43.685Z,6.87
2024-03-20T08:10:35.494Z,7.13
2024-03-20T08:14:06.068Z,7.31
2024-03-20T08:17:53.723Z,7.52
2024-03-20T08:21:34.736Z,7.83
2024-03-20T08:25:23.286Z,8.14
2024-03-20T08:29:11.063Z,8.38
2024-03-20T08:32:59.836Z,8.52
2024-03-20T08:36:54.468Z,8.59
2024-03-20T08:40:41.033Z,8.78
2024-03-20T08:44:28.842Z,9.11
2024-03-20T08:48:11.413Z,9.70
2024-03-20T08:51:36.497Z,10.55
2024-03-20T08:55:24.195Z,11.68
2024-03-20T08:59:06.748Z,13.08
2024-03-20T09:02:43.541Z,13.92
2024-03-20T09:06:31.423Z,14.01
2024-03-20T09:10:10.978Z,14.13
2024-03-20T09:14:09.723Z,14.16
2024-03-20T09:18:03.323Z,13.99
2024-03-20T09:21:55.134Z,13.99
2024-03-20T09:25:35.280Z,13.85
2024-03-20T09:29:33.904Z,13.66
2024-03-20T09:33:21.757Z,13.52
2024-03-20T09:37:16.920Z,13.45
2024-03-20T09:41:04.827Z,13.22
2024-03-20T09:44:58.251Z,12.96
2024-03-20T09:48:51.674Z,12.65
2024-03-20T09:52:41.451Z,12.47
2024-03-20T09:56:32.058Z,12.17
2024-03-20T10:00:12.209Z,12.00
2024-03-20T10:03:51.212Z,11.92
2024-03-20T10:07:40.985Z,11.95
2024-03-20T10:11:33.336Z,11.90
2024-03-20T10:15:31.685Z,11.70
2024-03-20T10:19:21.448Z,11.61
2024-03-20T10:23:09.691Z,11.43
2024-03-20T10:27:01.469Z,11.33
2024-03-20T10:30:49.347Z,11.25
2024-03-20T10:34:36.441Z,11.16
2024-03-20T10:38:24.339Z,11.09
2024-03-20T10:42:17.600Z,10.99
2024-03-20T10:45:49.168Z,10.78
2024-03-20T10:49:35.676Z,10.61
2024-03-20T10:53:17.101Z,10.62
2024-03-20T10:56:53.232Z,10.70
2024-03-20T11:00:35.841Z,10.71
2024-03-20T11:04:31.178Z,10.76
2024-03-20T11:08:24.563Z,10.73
2024-03-20T11:12:22.843Z,10.63
2024-03-20T11:16:15.300Z,10.57
2024-03-20T11:20:01.970Z,10.59
2024-03-20T11:23:34.928Z,10.70
2024-03-20T11:27:05.197Z,10.78
2024-03-20T11:30:36.729Z,10.76
2024-03-20T11:34:28.968Z,10.80
2024-03-20T11:38:06.106Z,10.90
2024-03-20T11:41:46.589Z,10.93
2024-03-20T11:45:40.146Z,11.01
2024-03-20T11:49:18.083Z,11.09
2024-03-20T11:53:14.738Z,11.17
2024-03-20T11:56:37.947Z,11.01
2024-03-20T12:00:08.136Z,10.86
2024-03-20T12:03:17.082Z,10.68
2024-03-20T12:06:58.277Z,10.64
2024-03-20T12:10:50.671Z,10.70
2024-03-20T12:13:41.193Z,10.77
2024-03-20T12:16:32.213Z,10.84
2024-03-20T12:19:22.100Z,10.89
2024-03-20T12:26:14.878Z,11.05
2024-03-20T12:29:29.123Z,11.12
2024-03-20T12:32:39.398Z,11.07
2024-03-20T12:36:11.139Z,11.06
2024-03-20T12:38:57.181Z,10.90
2024-03-20T12:42:33.651Z,10.77
2024-03-20T12:46:11.180Z,10.64
2024-03-20T12:49:49.615Z,10.56
2024-03-20T12:53:18.584Z,10.56
2024-03-20T12:55:45.651Z,10.56
2024-03-20T12:58:50.502Z,10.49
2024-03-20T13:01:55.850Z,10.54
2024-03-20T13:05:18.491Z,10.65
2024-03-20T13:08:16.067Z,10.77
2024-03-20T13:11:13.711Z,10.88
2024-03-20T13:14:23.717Z,10.97
2024-03-20T13:18:00.049Z,10.92
2024-03-20T13:21:27.401Z,10.89
2024-03-20T13:24:44.852Z,10.90
2024-03-20T13:28:22.462Z,10.75
2024-03-20T13:31:42.519Z,10.63
2024-03-20T13:35:10.836Z,10.57
2024-03-20T13:39:01.541Z,10.57
2024-03-20T13:42:34.598Z,10.50
2024-03-20T13:46:23.112Z,10.47
2024-03-20T13:50:05.619Z,10.29
2024-03-20T13:53:52.220Z,10.04
2024-03-20T13:57:45.641Z,9.88
2024-03-20T14:01:27.002Z,9.78
2024-03-20T14:05:14.701Z,9.69
2024-03-20T14:09:03.575Z,9.58
2024-03-20T14:12:41.129Z,9.45
2024-03-20T14:16:28.882Z,9.34
2024-03-20T14:20:16.586Z,9.14
2024-03-20T14:23:39.091Z,9.00
2024-03-20T14:27:15.566Z,8.81
2024-03-20T14:31:05.321Z,8.73
2024-03-20T14:34:54.013Z,8.73
2024-03-20T14:42:51.504Z,8.52
2024-03-20T14:46:45.024Z,8.51
2024-03-20T14:50:32.950Z,8.42
2024-03-20T14:53:44.397Z,8.39
2024-03-20T14:57:21.044Z,8.36
2024-03-20T15:01:01.398Z,8.33
2024-03-20T15:04:51.346Z,8.34
2024-03-20T15:08:20.643Z,8.36
2024-03-20T15:11:47.558Z,8.30
2024-03-20T15:15:29.037Z,8.17
2024-03-20T15:18:59.802Z,8.00
2024-03-20T15:22:24.751Z,7.78
2024-03-20T15:25:57.058Z,7.57
2024-03-20T15:29:32.938Z,7.26
2024-03-20T15:32:34.767Z,7.01
2024-03-20T15:35:53.783Z,6.80
2024-03-20T15:39:11.802Z,6.61
2024-03-20T15:42:52.288Z,6.42
2024-03-20T15:46:30.223Z,6.24
2024-03-20T15:50:22.784Z,6.07
2024-03-20T15:54:06.420Z,5.89
2024-03-20T15:57:51.779Z,5.70
2024-03-20T16:01:04.949Z,5.55
2024-03-20T16:04:42.739Z,5.39
2024-03-20T16:08:30.449Z,5.23
2024-03-20T16:12:09.115Z,5.08
2024-03-20T16:15:53.288Z,4.92
2024-03-20T16:19:31.450Z,4.70
2024-03-20T16:23:19.553Z,4.49
2024-03-20T16:26:50.096Z,4.34
2024-03-20T16:30:21.868Z,4.16
2024-03-20T16:34:09.588Z,3.99
2024-03-20T16:38:03.404Z,3.83
2024-03-20T16:41:30.373Z,3.68
2024-03-20T16:45:13.661Z,3.47
2024-03-20T16:48:52.667Z,3.28
2024-03-20T16:52:42.770Z,3.07
2024-03-20T16:56:14.828Z,2.88
2024-03-20T16:59:57.894Z,2.71
2024-03-20T17:03:53.857Z,2.54
2024-03-20T17:07:40.103Z,2.32
2024-03-20T17:11:29.130Z,2.14
2024-03-20T17:15:16.433Z,2.01
2024-03-20T17:18:50.071Z,1.83
2024-03-20T17:22:43.838Z,1.67
2024-03-20T17:26:33.774Z,1.50
2024-03-20T17:30:21.868Z,1.38
2024-03-20T17:34:07.536Z,1.31
2024-03-20T17:37:54.049Z,1.18
2024-03-20T17:41:19.885Z,1.05
2024-03-20T17:45:10.407Z,1.04
2024-03-20T17:48:29.462Z,0.98
2024-03-20T17:52:05.899Z,0.90
2024-03-20T17:55:54.837Z,0.80
2024-03-20T17:59:28.041Z,0.67
2024-03-20T18:03:19.408Z,0.52
2024-03-20T18:06:56.127Z,0.36
2024-03-20T18:10:45.911Z,0.20
2024-03-20T18:14:29.913Z,0.06
2024-03-20T18:18:20.689Z,-0.04
2024-03-20T18:21:55.007Z,-0.16
2024-03-20T18:25:46.769Z,-0.26
2024-03-20T18:29:44.683Z,-0.35
2024-03-20T18:33:23.786Z,-0.43
2024-03-20T18:37:14.811Z,-0.51
2024-03-20T18:40:59.651Z,-0.60
2024-03-20T18:48:40.360Z,-0.76
2024-03-20T18:52:20.841Z,-0.71
2024-03-20T18:56:04.390Z,-0.68
2024-03-20T18:59:35.303Z,-0.62
2024-03-20T19:06:58.326Z,-0.60
2024-03-20T19:10:23.549Z,-0.67
2024-03-20T19:13:55.043Z,-0.75
2024-03-20T19:17:26.162Z,-0.74
2024-03-20T19:21:04.961Z,-0.73
2024-03-20T19:24:27.904Z,-0.72
2024-03-20T19:28:03.516Z,-0.73
2024-03-20T19:31:29.542Z,-0.78
2024-03-20T19:35:03.034Z,-0.86
2024-03-20T19:38:15.941Z,-0.97
2024-03-20T19:41:38.669Z,-1.07
2024-03-20T19:45:26.535Z,-1.16
2024-03-20T19:48:42.314Z,-1.26
2024-03-20T19:52:13.398Z,-1.32
2024-03-20T19:55:50.157Z,-1.35
2024-03-20T19:58:56.339Z,-1.39
2024-03-20T20:02:13.648Z,-1.39
2024-03-20T20:05:11.813Z,-1.41
2024-03-20T20:08:56.577Z,-1.45
2024-03-20T20:12:16.645Z,-1.52
2024-03-20T20:15:47.588Z,-1.58
2024-03-20T20:18:58.847Z,-1.58
2024-03-20T20:22:55.411Z,-1.53
2024-03-20T20:25:52.708Z,-1.47
2024-03-20T20:28:39.769Z,-1.41
2024-03-20T20:31:26.659Z,-1.36
2024-03-20T20:35:03.118Z,-1.30
2024-03-20T20:38:03.390Z,-1.24
2024-03-20T20:41:52.107Z,-1.18
2024-03-20T20:45:07.479Z,-1.12
2024-03-20T20:48:09.498Z,-1.08
2024-03-20T20:51:38.439Z,-1.06
2024-03-20T20:55:10.324Z,-1.08
2024-03-20T20:58:41.082Z,-1.18
2024-03-20T21:02:11.674Z,-1.29
2024-03-20T21:05:50.709Z,-1.40
2024-03-20T21:09:40.050Z,-1.47
2024-03-20T21:13:20.322Z,-1.53
2024-03-20T21:16:59.402Z,-1.61
2024-03-20T21:20:48.026Z,-1.69
2024-03-20T21:24:38.979Z,-1.76
2024-03-20T21:28:12.145Z,-1.83
2024-03-20T21:31:58.918Z,-1.89
2024-03-20T21:35:47.478Z,-1.96
2024-03-20T21:39:40.080Z,-2.01
2024-03-20T21:43:28.176Z,-2.05
2024-03-20T21:47:07.278Z,-2.06
2024-03-20T21:50:43.890Z,-2.08
2024-03-20T21:54:31.608Z,-2.08
2024-03-20T21:58:10.755Z,-2.03
2024-03-20T22:01:43.770Z,-1.99
2024-03-20T22:05:09.394Z,-1.96
2024-03-20T22:08:04.046Z,-1.91
2024-03-20T22:11:29.770Z,-1.91
2024-03-20T22:14:48.064Z,-1.95
2024-03-20T22:17:49.153Z,-1.97
2024-03-20T22:21:09.642Z,-2.01
2024-03-20T22:24:38.876Z,-2.05
2024-03-20T22:28:05.439Z,-2.06
2024-03-20T22:31:53.504Z,-1.99
2024-03-20T22:35:42.455Z,-1.94
2024-03-20T22:39:33.074Z,-1.88
2024-03-20T22:42:55.939Z,-1.83
2024-03-20T22:46:17.154Z,-1.86
2024-03-20T22:49:46.798Z,-1.93
2024-03-20T22:53:06.748Z,-1.99
2024-03-20T22:55:46.897Z,-2.05
2024-03-20T22:58:43.639Z,-2.13
2024-03-20T23:02:06.378Z,-2.14
2024-03-20T23:05:35.548Z,-2.17
2024-03-20T23:09:03.420Z,-2.22
2024-03-20T23:12:23.314Z,-2.26
2024-03-20T23:15:13.993Z,-2.29
2024-03-20T23:18:44.270Z,-2.35
2024-03-20T23:21:58.850Z,-2.40
2024-03-20T23:25:14.222Z,-2.40
2024-03-20T23:28:55.042Z,-2.38
2024-03-20T23:32:43.862Z,-2.36
2024-03-20T23:36:31.439Z,-2.34
2024-03-20T23:40:09.051Z,-2.34
2024-03-20T23:43:29.283Z,-2.34
2024-03-20T23:47:08.084Z,-2.34
2024-03-20T23:50:49.648Z,-2.37
2024-03-20T23:54:30.646Z,-2.40
2024-03-20T23:58:03.583Z,-2.38
